Time;durP1;ratioP1;P1;durP2;ratioP2;P2;SDS_P1;SDS_P2;PMS_P1;PMS_P2;Temp;Humidity;BMP_temperature;BMP_pressure;BME280_temperature;BME280_humidity;BME280_pressure;Samples;Min_cycle;Max_cycle;Signal;HPM_P1;HPM_P2
2022/07/16 00:03:42;;;;;;;3.13;0.90;;;18.70;78.00;;;;;;5072655;28;20447;-45
2022/07/16 00:06:09;;;;;;;2.57;0.90;;;18.60;78.20;;;;;;5072564;28;20442;-45
2022/07/16 00:08:36;;;;;;;2.27;1.20;;;18.50;78.10;;;;;;5072008;28;20443;-46
2022/07/16 00:11:02;;;;;;;3.67;1.63;;;18.10;77.70;;;;;;5072445;28;20836;-46
2022/07/16 00:13:29;;;;;;;3.00;1.00;;;17.90;77.80;;;;;;5072154;28;20435;-45
2022/07/16 00:15:56;;;;;;;5.10;1.50;;;18.40;78.60;;;;;;5072266;28;20475;-45
2022/07/16 00:21:08;;;;;;;3.47;1.10;;;18.40;79.50;;;;;;5072366;28;20439;-45
2022/07/16 00:23:34;;;;;;;3.63;1.37;;;18.30;79.40;;;;;;5072324;28;20431;-45
2022/07/16 00:26:01;;;;;;;1.87;1.07;;;18.10;79.20;;;;;;5072590;28;20439;-46
2022/07/16 00:28:28;;;;;;;4.40;1.20;;;18.10;79.40;;;;;;5072087;28;20460;-44
2022/07/16 00:30:54;;;;;;;3.50;1.00;;;18.30;79.80;;;;;;5070924;28;20463;-45
2022/07/16 00:33:21;;;;;;;4.70;1.30;;;18.30;80.00;;;;;;5072178;28;20432;-47
2022/07/16 00:35:47;;;;;;;3.20;1.17;;;18.40;80.00;;;;;;5072079;28;20483;-45
2022/07/16 00:38:15;;;;;;;3.50;1.30;;;18.50;80.20;;;;;;5072291;28;20974;-45
2022/07/16 00:40:42;;;;;;;2.43;1.00;;;18.30;80.10;;;;;;5071553;28;20447;-45
2022/07/16 00:43:11;;;;;;;8.43;1.27;;;18.30;80.10;;;;;;5072051;28;20439;-45
2022/07/16 00:45:38;;;;;;;2.13;1.10;;;18.40;80.30;;;;;;5071385;28;20438;-45
2022/07/16 00:48:06;;;;;;;3.67;1.30;;;18.30;80.30;;;;;;5071196;22;20501;-48
2022/07/16 00:50:33;;;;;;;3.10;1.13;;;18.30;80.50;;;;;;5050002;28;20543;-47
2022/07/16 00:53:01;;;;;;;3.20;1.03;;;18.30;80.70;;;;;;5050260;28;20432;-47
2022/07/16 00:55:30;;;;;;;5.33;0.90;;;18.30;80.70;;;;;;5050147;28;20479;-48
2022/07/16 00:57:57;;;;;;;2.07;0.90;;;18.30;80.70;;;;;;5053769;28;20458;-47
2022/07/16 01:00:24;;;;;;;5.20;1.13;;;18.30;80.90;;;;;;5053801;28;20433;-48
2022/07/16 01:02:51;;;;;;;2.40;0.93;;;18.30;80.90;;;;;;5054274;28;20442;-47
2022/07/16 01:05:19;;;;;;;2.77;1.50;;;18.20;81.00;;;;;;5054088;28;20886;-48
2022/07/16 01:07:46;;;;;;;1.97;0.87;;;18.20;81.10;;;;;;5054029;28;20459;-48
2022/07/16 01:10:14;;;;;;;3.93;1.30;;;18.20;81.20;;;;;;5053684;28;20435;-47
2022/07/16 01:12:42;;;;;;;4.30;1.20;;;18.30;81.60;;;;;;5054363;28;20844;-48
2022/07/16 01:15:09;;;;;;;2.77;0.90;;;18.20;81.50;;;;;;5053941;28;20805;-48
2022/07/16 01:17:36;;;;;;;2.47;1.17;;;18.10;81.70;;;;;;5054011;28;20447;-47
2022/07/16 01:20:03;;;;;;;2.10;0.80;;;18.00;81.70;;;;;;5053581;28;20787;-47
2022/07/16 01:22:30;;;;;;;3.17;1.30;;;17.90;81.70;;;;;;5053831;28;20439;-48
2022/07/16 01:24:57;;;;;;;3.13;0.90;;;18.00;82.00;;;;;;5053742;28;20434;-48
2022/07/16 01:27:24;;;;;;;4.83;1.00;;;18.00;82.20;;;;;;5053758;28;20436;-48
2022/07/16 01:29:51;;;;;;;3.23;1.00;;;17.90;82.10;;;;;;5053394;28;20919;-47
2022/07/16 01:32:18;;;;;;;2.00;0.90;;;18.00;82.30;;;;;;5053887;28;20443;-48
2022/07/16 01:34:44;;;;;;;3.10;1.00;;;18.00;82.30;;;;;;5053458;28;20529;-48
2022/07/16 01:37:11;;;;;;;4.73;1.10;;;18.20;83.40;;;;;;5053394;28;20896;-47
2022/07/16 01:39:39;;;;;;;2.10;1.00;;;17.90;82.60;;;;;;5053098;28;20465;-47
2022/07/16 01:42:10;;;;;;;2.50;1.10;;;18.00;82.70;;;;;;5053747;28;20413;-47
2022/07/16 01:44:38;;;;;;;2.37;1.00;;;17.90;83.00;;;;;;5053622;28;20464;-47
2022/07/16 01:47:07;;;;;;;1.97;0.80;;;17.90;82.70;;;;;;5052930;28;20558;-47
2022/07/16 01:49:36;;;;;;;2.80;0.73;;;17.90;82.90;;;;;;5052812;28;20444;-47
2022/07/16 01:52:07;;;;;;;3.47;0.80;;;17.80;83.10;;;;;;5053128;28;20794;-47
2022/07/16 01:54:34;;;;;;;2.50;1.07;;;17.90;83.30;;;;;;5052876;28;20428;-48
2022/07/16 01:57:01;;;;;;;2.50;0.93;;;17.80;83.40;;;;;;5053124;28;20968;-47
2022/07/16 01:59:29;;;;;;;1.67;1.00;;;17.70;83.40;;;;;;5052599;28;20581;-47
2022/07/16 02:01:55;;;;;;;2.83;1.00;;;18.20;84.10;;;;;;5053046;28;20439;-48
2022/07/16 02:04:22;;;;;;;2.93;1.00;;;17.90;84.00;;;;;;5053316;28;20451;-48
2022/07/16 02:06:49;;;;;;;3.00;1.10;;;17.60;83.80;;;;;;5053152;28;20461;-48
2022/07/16 02:09:15;;;;;;;2.93;1.17;;;17.70;84.10;;;;;;5052363;28;20411;-48
2022/07/16 02:11:42;;;;;;;1.87;0.90;;;17.70;84.10;;;;;;5052909;28;20916;-47
2022/07/16 02:14:09;;;;;;;6.37;0.87;;;17.70;84.10;;;;;;5053201;28;20494;-48
2022/07/16 02:16:37;;;;;;;2.90;1.00;;;17.80;84.40;;;;;;5052848;28;20481;-47
2022/07/16 02:19:03;;;;;;;1.80;0.93;;;17.90;84.30;;;;;;5052491;28;20438;-48
2022/07/16 02:21:31;;;;;;;3.17;1.20;;;17.70;84.20;;;;;;5052812;28;20446;-48
2022/07/16 02:23:57;;;;;;;2.03;0.90;;;17.70;84.10;;;;;;5052800;28;20430;-47
2022/07/16 02:26:24;;;;;;;2.43;1.00;;;17.40;83.60;;;;;;5052868;28;20462;-46
2022/07/16 02:28:50;;;;;;;2.03;0.90;;;17.80;83.90;;;;;;5052264;28;20436;-47
2022/07/16 02:31:17;;;;;;;4.13;1.27;;;17.70;83.70;;;;;;5052902;28;20817;-47
2022/07/16 02:33:45;;;;;;;4.00;1.37;;;17.60;83.60;;;;;;5052787;28;20451;-47
2022/07/16 02:36:12;;;;;;;2.47;1.20;;;17.70;83.70;;;;;;5052731;28;20482;-47
2022/07/16 02:38:39;;;;;;;1.53;0.90;;;17.70;83.50;;;;;;5052310;28;20451;-47
2022/07/16 02:41:06;;;;;;;2.40;0.90;;;17.80;83.60;;;;;;5052786;28;20449;-47
2022/07/16 02:43:32;;;;;;;3.13;1.10;;;17.70;83.60;;;;;;5052639;28;20430;-47
2022/07/16 02:45:59;;;;;;;3.63;1.40;;;17.70;83.70;;;;;;5052402;28;20423;-47
2022/07/16 02:48:26;;;;;;;2.60;1.00;;;17.60;83.40;;;;;;5052864;28;20820;-47
2022/07/16 02:50:54;;;;;;;4.40;1.00;;;17.70;83.60;;;;;;5053383;28;20451;-48
2022/07/16 02:53:20;;;;;;;3.20;0.90;;;17.60;83.40;;;;;;5053070;28;20751;-47
2022/07/16 02:55:47;;;;;;;2.30;1.03;;;17.60;83.40;;;;;;5052967;28;20431;-47
2022/07/16 02:58:13;;;;;;;1.40;0.80;;;17.60;83.30;;;;;;5051300;28;20559;-47
2022/07/16 03:00:40;;;;;;;2.53;1.10;;;17.70;83.40;;;;;;5052844;28;20433;-47
2022/07/16 03:03:06;;;;;;;2.73;0.97;;;17.60;83.30;;;;;;5054038;28;20431;-48
2022/07/16 03:05:33;;;;;;;2.93;1.10;;;17.60;83.30;;;;;;5053646;28;20438;-48
2022/07/16 03:08:01;;;;;;;4.33;1.00;;;17.60;83.30;;;;;;5052186;28;20457;-47
2022/07/16 03:10:28;;;;;;;4.13;1.33;;;17.60;83.20;;;;;;5052133;28;20435;-47
2022/07/16 03:12:55;;;;;;;3.80;1.23;;;17.70;83.40;;;;;;5052004;28;20428;-49
2022/07/16 03:15:22;;;;;;;2.70;1.10;;;17.70;83.40;;;;;;5051181;28;20455;-49
2022/07/16 03:17:49;;;;;;;3.40;1.40;;;17.60;83.10;;;;;;5051535;28;20575;-48
2022/07/16 03:20:15;;;;;;;2.40;1.23;;;17.70;83.40;;;;;;5051307;28;20442;-46
2022/07/16 03:22:45;;;;;;;2.93;1.73;;;17.70;83.20;;;;;;5051912;28;20921;-48
2022/07/16 03:25:15;;;;;;;2.77;1.03;;;17.70;83.40;;;;;;5051644;28;20431;-47
2022/07/16 03:27:42;;;;;;;2.90;1.23;;;17.70;83.10;;;;;;5051589;28;20451;-47
2022/07/16 03:30:10;;;;;;;3.70;1.30;;;17.50;82.70;;;;;;5050944;28;20438;-47
2022/07/16 03:32:37;;;;;;;3.73;1.20;;;17.80;83.00;;;;;;5051039;28;20458;-47
2022/07/16 03:35:05;;;;;;;2.50;1.10;;;17.70;82.70;;;;;;5051350;28;20427;-47
2022/07/16 03:37:32;;;;;;;5.13;1.60;;;17.90;82.80;;;;;;5051018;28;20518;-46
2022/07/16 03:39:58;;;;;;;4.47;1.30;;;17.80;82.70;;;;;;5051064;28;20435;-47
2022/07/16 03:42:26;;;;;;;3.93;1.10;;;17.70;82.50;;;;;;5051129;28;20520;-47
2022/07/16 03:44:53;;;;;;;3.33;0.90;;;17.80;83.30;;;;;;5051838;28;20784;-47
2022/07/16 03:47:19;;;;;;;2.40;1.17;;;17.80;84.70;;;;;;5049731;28;20493;-47
2022/07/16 03:49:46;;;;;;;3.67;0.93;;;17.80;85.10;;;;;;5050716;28;20432;-48
2022/07/16 03:52:13;;;;;;;3.07;1.73;;;17.90;86.10;;;;;;5051214;28;20435;-48
2022/07/16 03:54:39;;;;;;;2.87;1.13;;;17.80;86.80;;;;;;5050965;28;20432;-48
2022/07/16 03:57:06;;;;;;;4.63;1.33;;;17.80;87.00;;;;;;5050832;28;20904;-48
2022/07/16 03:59:34;;;;;;;2.50;1.23;;;17.80;87.90;;;;;;5050545;28;20573;-48
2022/07/16 04:02:01;;;;;;;3.03;1.10;;;17.80;88.60;;;;;;5049660;28;20906;-48
2022/07/16 04:04:27;;;;;;;3.90;1.60;;;17.80;89.20;;;;;;5051372;28;20428;-47
2022/07/16 04:06:54;;;;;;;5.00;0.93;;;17.80;90.00;;;;;;5050949;28;20460;-48
2022/07/16 04:09:20;;;;;;;2.00;1.00;;;17.60;89.80;;;;;;5050617;28;20811;-48
2022/07/16 04:11:47;;;;;;;4.03;1.40;;;17.80;90.20;;;;;;5051041;28;20523;-48
2022/07/16 04:14:13;;;;;;;2.00;1.27;;;17.80;90.00;;;;;;5051973;28;20430;-47
2022/07/16 04:16:42;;;;;;;5.20;1.80;;;17.80;90.00;;;;;;5059011;28;20476;-48
2022/07/16 04:19:09;;;;;;;6.20;1.37;;;17.90;90.00;;;;;;5058506;28;20844;-47
2022/07/16 04:21:35;;;;;;;3.83;1.30;;;17.80;90.10;;;;;;5057928;28;20969;-48
2022/07/16 04:24:02;;;;;;;2.57;1.27;;;18.00;90.20;;;;;;5058459;28;20519;-48
2022/07/16 04:26:29;;;;;;;2.77;1.43;;;17.80;90.10;;;;;;5056423;28;20447;-48
2022/07/16 04:28:56;;;;;;;2.87;1.40;;;17.90;90.00;;;;;;5050687;28;20444;-48
2022/07/16 04:31:23;;;;;;;2.47;1.20;;;17.60;90.00;;;;;;5050238;28;20476;-47
2022/07/16 04:33:51;;;;;;;3.40;1.50;;;18.00;90.10;;;;;;5050790;28;20439;-48
2022/07/16 04:36:18;;;;;;;2.93;1.30;;;18.00;90.00;;;;;;5050606;28;20447;-48
2022/07/16 04:38:45;;;;;;;3.00;1.50;;;18.00;89.30;;;;;;5050210;28;20459;-48
2022/07/16 04:41:11;;;;;;;4.43;1.73;;;17.90;89.00;;;;;;5050972;28;20434;-48
2022/07/16 04:43:39;;;;;;;2.43;1.30;;;18.00;88.80;;;;;;5050375;28;20435;-48
2022/07/16 04:46:05;;;;;;;2.10;1.40;;;18.00;88.80;;;;;;5050465;28;20433;-48
2022/07/16 04:48:32;;;;;;;3.20;1.87;;;17.50;87.70;;;;;;5050229;28;20464;-48
2022/07/16 04:51:00;;;;;;;2.63;1.37;;;17.70;88.00;;;;;;5050510;28;20448;-47
2022/07/16 04:53:27;;;;;;;2.43;1.10;;;17.90;87.80;;;;;;5050200;28;20776;-48
2022/07/16 04:55:53;;;;;;;3.87;1.33;;;18.00;87.30;;;;;;5050544;28;20454;-48
2022/07/16 04:58:20;;;;;;;3.07;1.30;;;17.90;87.20;;;;;;5050107;28;20487;-46
2022/07/16 05:00:46;;;;;;;6.47;1.67;;;17.90;87.30;;;;;;5050000;28;20532;-48
2022/07/16 05:03:13;;;;;;;2.03;1.00;;;18.10;87.60;;;;;;5050245;28;20440;-48
2022/07/16 05:05:40;;;;;;;7.30;1.30;;;17.90;87.20;;;;;;5050129;28;20465;-47
2022/07/16 05:08:09;;;;;;;2.53;1.10;;;17.90;86.70;;;;;;5050149;28;20457;-46
2022/07/16 05:10:36;;;;;;;4.30;1.80;;;17.90;86.40;;;;;;5049926;28;20442;-48
2022/07/16 05:13:03;;;;;;;2.47;1.20;;;17.70;86.00;;;;;;5050250;28;20444;-48
2022/07/16 05:15:31;;;;;;;3.00;1.27;;;17.90;86.30;;;;;;5050064;28;20523;-48
2022/07/16 05:17:57;;;;;;;2.63;1.10;;;17.90;85.40;;;;;;5049908;28;20573;-48
2022/07/16 05:20:24;;;;;;;4.60;1.20;;;18.10;85.70;;;;;;5049803;28;20440;-47
2022/07/16 05:22:51;;;;;;;1.80;0.87;;;17.90;85.60;;;;;;5049717;28;20438;-47
2022/07/16 05:25:19;;;;;;;2.73;1.30;;;18.00;86.10;;;;;;5049805;28;20810;-47
2022/07/16 05:27:45;;;;;;;3.10;1.30;;;18.00;86.20;;;;;;5049649;28;20459;-48
2022/07/16 05:30:12;;;;;;;2.70;1.10;;;17.50;85.40;;;;;;5049647;28;20468;-47
2022/07/16 05:32:39;;;;;;;3.40;1.37;;;18.00;85.80;;;;;;5049714;28;20445;-48
2022/07/16 05:35:07;;;;;;;2.90;1.10;;;18.00;85.40;;;;;;5049688;28;20435;-48
2022/07/16 05:37:33;;;;;;;4.83;1.57;;;18.10;85.10;;;;;;5049771;28;20482;-48
2022/07/16 05:40:00;;;;;;;2.73;0.90;;;18.20;84.70;;;;;;5049907;28;20834;-49
2022/07/16 05:42:28;;;;;;;2.30;1.30;;;18.30;84.20;;;;;;5050083;28;20535;-49
2022/07/16 05:44:55;;;;;;;3.87;1.23;;;18.30;84.00;;;;;;5053224;28;20450;-48
2022/07/16 05:47:22;;;;;;;5.43;1.40;;;18.40;83.90;;;;;;5052102;28;20511;-48
2022/07/16 05:49:49;;;;;;;6.33;1.57;;;18.50;83.80;;;;;;5053294;28;20433;-48
2022/07/16 05:52:15;;;;;;;3.47;2.30;;;18.70;84.00;;;;;;5053456;28;20450;-48
2022/07/16 05:54:42;;;;;;;3.33;1.40;;;18.40;83.20;;;;;;5053535;28;20499;-48
2022/07/16 05:57:09;;;;;;;2.83;1.33;;;18.40;82.90;;;;;;5053188;28;20846;-48
2022/07/16 05:59:37;;;;;;;5.97;1.00;;;18.40;83.10;;;;;;5053121;28;20428;-46
2022/07/16 06:02:03;;;;;;;2.97;1.33;;;18.40;83.20;;;;;;5053564;28;20433;-47
2022/07/16 06:04:30;;;;;;;2.20;1.20;;;18.40;83.30;;;;;;5053868;28;20778;-48
2022/07/16 06:06:56;;;;;;;3.40;1.60;;;18.50;84.50;;;;;;5053119;28;20472;-48
2022/07/16 06:09:23;;;;;;;2.00;1.10;;;18.40;85.90;;;;;;5052755;28;20525;-47
2022/07/16 06:11:50;;;;;;;4.60;1.60;;;18.40;86.60;;;;;;5052981;28;20440;-47
2022/07/16 06:14:16;;;;;;;6.97;1.80;;;18.50;88.20;;;;;;5052946;28;20439;-47
2022/07/16 06:16:44;;;;;;;4.93;2.20;;;18.30;89.30;;;;;;5052748;28;20870;-47
2022/07/16 06:19:11;;;;;;;4.53;2.10;;;18.30;90.60;;;;;;5052523;28;20436;-48
2022/07/16 06:21:38;;;;;;;3.37;2.37;;;18.70;91.00;;;;;;5053011;28;20437;-47
2022/07/16 06:24:04;;;;;;;4.57;1.90;;;18.20;91.50;;;;;;5053156;28;20433;-47
2022/07/16 06:26:31;;;;;;;6.97;1.90;;;18.10;92.10;;;;;;5052767;28;20450;-48
2022/07/16 06:28:58;;;;;;;5.70;2.03;;;18.10;92.50;;;;;;5052538;28;20442;-48
2022/07/16 06:31:24;;;;;;;4.13;2.20;;;18.00;92.90;;;;;;5052661;28;20440;-48
2022/07/16 06:33:52;;;;;;;7.60;2.60;;;18.00;93.30;;;;;;5052607;28;20793;-48
2022/07/16 06:36:19;;;;;;;3.77;1.93;;;17.90;93.90;;;;;;5052825;28;20432;-48
2022/07/16 06:38:46;;;;;;;5.50;2.40;;;17.90;94.20;;;;;;5052182;28;20487;-48
2022/07/16 06:41:12;;;;;;;2.63;2.10;;;17.80;94.90;;;;;;5052595;28;20443;-48
2022/07/16 06:43:39;;;;;;;4.13;2.50;;;18.00;95.10;;;;;;5052628;28;20764;-48
2022/07/16 06:46:06;;;;;;;4.13;3.00;;;17.50;95.50;;;;;;5052438;28;20446;-48
2022/07/16 06:48:33;;;;;;;3.13;2.10;;;17.50;95.60;;;;;;5077031;22;20498;-43
2022/07/16 06:51:02;;;;;;;3.13;2.50;;;17.60;96.10;;;;;;5053707;28;20434;-43
2022/07/16 06:53:29;;;;;;;4.73;2.40;;;17.60;96.60;;;;;;5053656;28;20433;-43
2022/07/16 06:55:55;;;;;;;6.10;2.67;;;17.60;96.50;;;;;;5053062;28;20442;-43
2022/07/16 06:58:22;;;;;;;2.77;2.23;;;17.20;96.70;;;;;;5053148;28;20486;-44
2022/07/16 07:00:49;;;;;;;5.33;2.90;;;17.50;97.00;;;;;;5053327;28;20929;-43
2022/07/16 07:03:16;;;;;;;6.57;2.70;;;17.70;97.20;;;;;;5053395;28;20924;-43
2022/07/16 07:05:42;;;;;;;3.20;2.50;;;17.70;97.50;;;;;;5035426;28;20508;-41
2022/07/16 07:08:10;;;;;;;6.17;2.30;;;17.80;97.90;;;;;;5035228;28;20472;-45
2022/07/16 07:10:37;;;;;;;3.80;2.53;;;18.00;98.00;;;;;;5053422;28;20436;-44
2022/07/16 07:13:04;;;;;;;2.67;2.30;;;18.10;98.00;;;;;;5035266;28;20454;-43
2022/07/16 07:15:30;;;;;;;3.37;2.33;;;18.20;98.10;;;;;;5035215;28;20451;-43
2022/07/16 07:17:57;;;;;;;3.40;2.47;;;18.30;97.90;;;;;;5052795;28;20488;-45
2022/07/16 07:20:24;;;;;;;4.30;2.90;;;18.50;98.00;;;;;;5053199;28;20798;-43
2022/07/16 07:22:51;;;;;;;4.07;2.70;;;18.80;98.10;;;;;;5053008;28;20434;-43
2022/07/16 07:25:19;;;;;;;7.93;2.80;;;18.60;97.70;;;;;;5052794;28;20432;-44
2022/07/16 07:27:46;;;;;;;3.87;2.63;;;18.60;98.10;;;;;;5052468;28;20491;-43
2022/07/16 07:30:13;;;;;;;3.90;3.50;;;18.80;98.20;;;;;;5052863;28;20426;-43
2022/07/16 07:32:40;;;;;;;3.80;2.40;;;18.80;98.10;;;;;;5052645;28;20449;-43
2022/07/16 07:35:07;;;;;;;4.47;2.57;;;18.90;97.50;;;;;;5052277;28;20441;-44
2022/07/16 07:37:34;;;;;;;3.50;2.70;;;18.90;97.50;;;;;;5052381;28;20477;-43
2022/07/16 07:40:02;;;;;;;4.87;2.80;;;19.00;97.70;;;;;;5052418;28;20517;-44
2022/07/16 07:42:30;;;;;;;3.30;2.50;;;19.20;97.70;;;;;;5052527;28;20766;-45
2022/07/16 07:44:57;;;;;;;4.10;3.30;;;18.70;97.10;;;;;;5052243;28;20440;-42
2022/07/16 07:47:24;;;;;;;3.80;2.37;;;19.20;96.90;;;;;;5034063;28;20580;-46
2022/07/16 07:49:51;;;;;;;2.80;2.23;;;19.40;96.60;;;;;;5052192;28;20437;-43
2022/07/16 07:52:17;;;;;;;3.77;2.67;;;19.20;96.40;;;;;;5052522;28;20437;-43
2022/07/16 07:54:44;;;;;;;4.30;2.87;;;19.30;96.40;;;;;;5052309;28;20441;-46
2022/07/16 07:57:10;;;;;;;4.37;2.40;;;19.30;96.30;;;;;;5052044;28;20462;-44
2022/07/16 07:59:39;;;;;;;4.47;2.27;;;19.40;96.30;;;;;;5052002;28;20483;-44
2022/07/16 08:02:05;;;;;;;4.43;2.70;;;19.50;96.20;;;;;;5051910;28;20437;-42
2022/07/16 08:04:33;;;;;;;3.40;2.60;;;19.70;95.70;;;;;;5051682;28;20445;-41
2022/07/16 08:07:00;;;;;;;3.03;2.07;;;19.60;95.90;;;;;;5051033;28;20480;-43
2022/07/16 08:09:26;;;;;;;4.90;2.00;;;19.80;95.90;;;;;;5052361;28;20465;-43
2022/07/16 08:11:53;;;;;;;4.20;2.30;;;19.70;95.30;;;;;;5034518;28;20492;-43
2022/07/16 08:14:20;;;;;;;3.47;2.00;;;19.50;95.50;;;;;;5051950;28;20437;-44
2022/07/16 08:16:48;;;;;;;2.70;2.17;;;19.90;95.50;;;;;;5051633;28;20488;-44
2022/07/16 08:19:15;;;;;;;4.70;2.00;;;20.00;94.90;;;;;;5051543;28;20473;-44
2022/07/16 08:21:41;;;;;;;3.03;1.60;;;20.20;94.20;;;;;;5051748;28;20429;-44
2022/07/16 08:26:52;;;;;;;4.33;2.17;;;20.30;92.50;;;;;;5051775;28;20879;-43
2022/07/16 08:29:19;;;;;;;3.40;1.10;;;20.10;91.90;;;;;;5051596;28;20829;-45
2022/07/16 08:31:46;;;;;;;2.10;1.43;;;20.30;91.00;;;;;;5051692;28;20431;-43
2022/07/16 08:34:14;;;;;;;2.23;1.30;;;20.10;90.70;;;;;;5051441;28;20478;-44
2022/07/16 08:36:41;;;;;;;2.97;1.90;;;20.10;90.70;;;;;;5051432;28;20484;-46
2022/07/16 08:39:08;;;;;;;3.73;1.67;;;20.10;90.90;;;;;;5051483;28;20514;-44
2022/07/16 08:41:35;;;;;;;3.30;1.40;;;20.20;90.80;;;;;;5051601;28;20434;-43
2022/07/16 08:44:02;;;;;;;3.83;1.60;;;20.30;90.50;;;;;;5051585;28;20435;-44
2022/07/16 08:46:30;;;;;;;2.57;1.40;;;20.40;89.80;;;;;;5051541;28;20501;-43
2022/07/16 08:48:57;;;;;;;3.20;1.67;;;20.40;88.40;;;;;;5051497;28;20469;-43
2022/07/16 08:51:32;;;;;;;3.07;1.50;;;20.40;87.70;;;;;;5051412;28;20434;-44
2022/07/16 08:54:04;;;;;;;3.40;1.30;;;20.50;87.10;;;;;;5033508;28;20482;-43
2022/07/16 08:56:32;;;;;;;2.43;1.30;;;20.40;86.60;;;;;;5051314;28;20473;-44
2022/07/16 08:59:01;;;;;;;2.40;1.50;;;20.40;85.70;;;;;;5033696;28;20495;-42
2022/07/16 09:01:29;;;;;;;2.30;1.43;;;20.80;85.90;;;;;;5051593;28;20432;-47
2022/07/16 09:03:57;;;;;;;4.57;1.40;;;20.50;84.20;;;;;;5051924;28;20499;-45
2022/07/16 09:06:25;;;;;;;3.20;1.77;;;20.60;83.20;;;;;;5052107;28;20521;-43
2022/07/16 09:08:52;;;;;;;3.20;1.40;;;20.80;83.50;;;;;;5033330;28;20464;-43
2022/07/16 09:11:20;;;;;;;6.07;1.30;;;20.80;82.10;;;;;;5051199;28;20510;-43
2022/07/16 09:14:04;;;;;;;2.73;1.30;;;20.70;81.50;;;;;;5051714;28;20450;-43
2022/07/16 09:16:32;;;;;;;2.73;1.27;;;20.80;80.50;;;;;;5051714;28;20459;-44
2022/07/16 09:19:08;;;;;;;1.60;1.07;;;20.50;80.80;;;;;;5055011;28;20497;-43
2022/07/16 09:21:36;;;;;;;2.97;1.40;;;20.50;80.80;;;;;;5055454;28;20462;-44
2022/07/16 09:24:04;;;;;;;3.00;1.37;;;20.40;80.90;;;;;;5055372;28;20518;-42
2022/07/16 09:26:31;;;;;;;3.40;1.47;;;20.40;80.60;;;;;;5037399;28;20446;-43
2022/07/16 09:29:04;;;;;;;2.90;1.33;;;20.50;80.20;;;;;;5055318;28;20460;-44
2022/07/16 09:31:35;;;;;;;2.80;1.20;;;20.60;78.70;;;;;;5037680;28;20526;-43
2022/07/16 09:34:04;;;;;;;3.40;1.30;;;20.40;77.00;;;;;;5055157;28;20814;-42
2022/07/16 09:36:31;;;;;;;2.73;1.37;;;20.70;77.20;;;;;;5054473;28;20434;-43
2022/07/16 09:38:59;;;;;;;2.73;1.20;;;20.70;76.30;;;;;;5054966;28;20478;-43
2022/07/16 09:41:25;;;;;;;2.90;1.13;;;20.50;74.50;;;;;;5055164;28;20442;-44
2022/07/16 09:43:52;;;;;;;3.87;1.10;;;20.40;74.40;;;;;;5054650;28;20446;-44
2022/07/16 09:46:21;;;;;;;2.17;0.90;;;20.50;73.70;;;;;;5054375;28;20430;-44
2022/07/16 09:48:48;;;;;;;2.23;1.40;;;20.60;71.60;;;;;;5054052;28;20986;-42
2022/07/16 09:51:18;;;;;;;5.47;1.13;;;20.60;70.60;;;;;;5036387;28;20442;-43
2022/07/16 09:53:46;;;;;;;2.00;1.20;;;20.60;69.50;;;;;;5054644;28;20423;-43
2022/07/16 09:56:16;;;;;;;1.77;0.80;;;20.60;69.50;;;;;;5054585;28;20438;-45
2022/07/16 09:58:48;;;;;;;3.53;2.37;;;20.70;69.10;;;;;;5053984;28;20482;-45
2022/07/16 10:01:15;;;;;;;5.87;1.07;;;20.80;68.60;;;;;;5054833;28;20505;-44
2022/07/16 10:03:42;;;;;;;2.70;1.40;;;21.00;69.30;;;;;;5054107;28;20771;-42
2022/07/16 10:06:09;;;;;;;2.70;1.43;;;21.00;68.40;;;;;;5054180;28;20794;-45
2022/07/16 10:08:36;;;;;;;1.50;0.93;;;21.10;68.70;;;;;;5054085;28;21046;-44
2022/07/16 10:11:04;;;;;;;1.80;1.00;;;21.20;68.20;;;;;;5054214;28;20431;-43
2022/07/16 10:13:34;;;;;;;2.10;1.30;;;21.10;66.00;;;;;;5036158;28;20457;-44
2022/07/16 10:16:00;;;;;;;2.03;1.17;;;21.20;67.10;;;;;;5053836;28;20450;-42
2022/07/16 10:18:36;;;;;;;2.50;1.27;;;20.90;66.70;;;;;;5053886;28;20839;-42
2022/07/16 10:21:13;;;;;;;2.30;1.10;;;20.90;66.00;;;;;;5053749;28;20460;-44
2022/07/16 10:23:42;;;;;;;3.40;1.30;;;21.00;67.00;;;;;;5053781;28;20434;-44
2022/07/16 10:26:16;;;;;;;4.60;1.20;;;20.80;66.80;;;;;;5054283;28;20431;-44
2022/07/16 10:28:50;;;;;;;2.17;1.00;;;21.00;67.10;;;;;;5053022;28;20484;-42
2022/07/16 10:31:38;;;;;;;3.50;1.20;;;20.70;65.80;;;;;;5053477;28;20415;-43
2022/07/16 10:34:39;;;;;;;1.70;0.83;;;20.90;65.80;;;;;;5053360;28;20440;-42
2022/07/16 10:37:11;;;;;;;2.60;1.00;;;20.50;66.20;;;;;;5053576;28;20462;-44
2022/07/16 10:40:00;;;;;;;2.03;1.00;;;20.40;67.00;;;;;;5035391;28;20483;-45
2022/07/16 10:42:28;;;;;;;4.90;1.50;;;20.40;63.90;;;;;;5047879;28;20512;-44
2022/07/16 10:44:56;;;;;;;3.20;0.83;;;20.30;64.20;;;;;;5053206;28;20438;-44
2022/07/16 10:47:43;;;;;;;2.80;0.90;;;20.30;63.50;;;;;;5053047;28;20471;-44
2022/07/16 10:50:17;;;;;;;2.60;1.13;;;20.50;64.00;;;;;;5053327;28;20431;-42
2022/07/16 10:52:47;;;;;;;1.67;0.90;;;20.70;64.70;;;;;;5053179;28;20842;-42
2022/07/16 10:55:30;;;;;;;2.80;1.20;;;20.90;63.60;;;;;;5053121;28;20935;-42
2022/07/16 10:57:57;;;;;;;4.63;1.23;;;21.10;63.80;;;;;;5052992;28;20448;-43
2022/07/16 11:00:25;;;;;;;1.83;1.07;;;20.90;64.10;;;;;;5052849;28;20853;-43
2022/07/16 11:02:57;;;;;;;2.33;1.37;;;21.10;63.30;;;;;;5053518;28;20822;-43
2022/07/16 11:05:24;;;;;;;4.17;1.30;;;21.20;63.60;;;;;;5053187;28;20446;-43
2022/07/16 11:07:51;;;;;;;2.00;1.00;;;21.40;63.00;;;;;;5052719;28;20465;-44
2022/07/16 11:10:22;;;;;;;2.67;1.30;;;21.60;63.00;;;;;;5053234;28;20443;-43
2022/07/16 11:12:49;;;;;;;2.77;1.00;;;21.70;62.40;;;;;;5052939;28;20432;-42
2022/07/16 11:15:16;;;;;;;6.30;1.50;;;21.70;61.20;;;;;;5053148;28;20459;-44
2022/07/16 11:17:54;;;;;;;2.27;1.23;;;21.60;61.40;;;;;;5053026;28;20463;-43
2022/07/16 11:20:21;;;;;;;3.90;1.30;;;21.50;60.90;;;;;;5052723;28;20472;-43
2022/07/16 11:22:47;;;;;;;2.33;1.10;;;21.60;61.50;;;;;;5052921;28;20470;-44
2022/07/16 11:25:14;;;;;;;4.27;1.40;;;21.20;60.60;;;;;;5052740;28;20444;-43
2022/07/16 11:27:41;;;;;;;1.90;1.03;;;21.20;60.50;;;;;;5052582;28;20452;-44
2022/07/16 11:30:10;;;;;;;2.13;1.20;;;21.70;59.90;;;;;;5052297;28;20937;-43
2022/07/16 11:32:43;;;;;;;3.20;1.30;;;21.60;59.20;;;;;;5052617;28;20778;-44
2022/07/16 11:35:10;;;;;;;3.03;0.93;;;21.40;58.60;;;;;;5052360;28;20456;-43
2022/07/16 11:37:48;;;;;;;3.10;1.13;;;21.30;57.80;;;;;;5052712;28;20453;-43
2022/07/16 11:40:15;;;;;;;3.20;1.23;;;21.30;57.50;;;;;;5052060;28;20804;-43
2022/07/16 11:42:41;;;;;;;2.93;1.00;;;21.10;57.80;;;;;;5051777;28;20456;-45
2022/07/16 11:45:10;;;;;;;3.47;0.70;;;21.10;57.80;;;;;;5052367;28;20891;-44
2022/07/16 11:47:38;;;;;;;2.63;1.40;;;21.20;57.60;;;;;;5052253;28;20478;-42
2022/07/16 11:50:07;;;;;;;1.70;1.17;;;21.10;57.20;;;;;;5052026;28;20448;-43
2022/07/16 11:52:34;;;;;;;2.40;1.27;;;21.00;57.10;;;;;;5052100;28;20431;-43
2022/07/16 11:55:01;;;;;;;4.60;1.20;;;21.00;56.20;;;;;;5052269;28;20431;-44
2022/07/16 11:57:27;;;;;;;3.57;1.00;;;21.20;56.00;;;;;;5051974;28;20959;-43
2022/07/16 11:59:55;;;;;;;5.40;1.40;;;21.30;56.10;;;;;;5051635;28;20477;-45
2022/07/16 12:02:23;;;;;;;2.77;1.00;;;21.40;55.80;;;;;;5052251;28;20442;-43
2022/07/16 12:04:52;;;;;;;2.80;1.30;;;21.40;55.00;;;;;;5052168;28;21018;-47
2022/07/16 12:07:31;;;;;;;6.50;2.00;;;21.50;53.80;;;;;;5051800;28;20456;-44
2022/07/16 12:10:00;;;;;;;7.37;1.50;;;21.60;53.40;;;;;;5051876;28;20531;-43
2022/07/16 12:12:28;;;;;;;4.03;1.00;;;21.80;53.00;;;;;;5051548;28;20631;-46
2022/07/16 12:14:56;;;;;;;3.73;1.40;;;21.80;52.80;;;;;;5051931;28;20428;-46
2022/07/16 12:17:28;;;;;;;2.50;1.10;;;22.00;52.90;;;;;;5051240;28;20468;-44
2022/07/16 12:20:06;;;;;;;3.60;1.03;;;22.10;53.10;;;;;;5052033;28;20477;-44
2022/07/16 12:22:54;;;;;;;2.70;1.07;;;21.80;52.50;;;;;;5051529;28;20440;-44
2022/07/16 12:25:30;;;;;;;2.97;1.20;;;22.10;52.30;;;;;;5051583;28;20432;-47
2022/07/16 12:27:59;;;;;;;5.40;1.30;;;21.80;52.20;;;;;;5051078;28;20484;-45
2022/07/16 12:30:31;;;;;;;2.73;1.27;;;21.70;52.60;;;;;;5051292;28;20979;-44
2022/07/16 12:32:59;;;;;;;3.20;0.80;;;21.40;52.70;;;;;;5051476;28;20429;-44
2022/07/16 12:35:37;;;;;;;6.07;1.30;;;21.60;53.00;;;;;;5051206;28;20437;-44
2022/07/16 12:38:05;;;;;;;2.70;1.57;;;21.60;53.60;;;;;;5051144;28;20855;-44
2022/07/16 12:40:33;;;;;;;5.20;1.40;;;21.20;52.50;;;;;;5033263;28;20481;-43
2022/07/16 12:43:01;;;;;;;1.70;1.20;;;21.40;52.50;;;;;;5051481;28;20463;-44
2022/07/16 12:45:28;;;;;;;4.30;1.43;;;21.50;53.00;;;;;;5051231;28;20532;-44
2022/07/16 12:47:54;;;;;;;4.10;1.30;;;21.50;52.90;;;;;;5051813;28;20819;-45
2022/07/16 12:50:21;;;;;;;2.60;0.90;;;21.60;52.10;;;;;;5051176;28;20443;-45
2022/07/16 12:52:48;;;;;;;3.80;1.30;;;21.70;52.10;;;;;;5053046;28;20443;-45
2022/07/16 13:00:44;;;;;;;2.40;1.33;;;21.60;52.20;;;;;;5055014;28;20849;-45
2022/07/16 13:03:11;;;;;;;5.13;1.20;;;21.70;52.20;;;;;;5055762;28;20438;-45
2022/07/16 13:05:38;;;;;;;5.13;1.40;;;21.80;52.50;;;;;;5055880;28;20440;-45